Oak Hammock Air Park

CAV9 · 曼尼托巴, 加拿大

使用的METAR站距离机场16 NM。
罗盘
风向 的 风向 150° Oak Hammock Air Park 18/36
风: 7 kt, 3 beaufort

6 kt

3 kt
改变
0 ft 6.000 12.000 18.000 24.000 30.000
Cloud Cloud
FEW 8.100
Cloud Cloud Cloud Cloud Cloud Cloud
BKN 25.000
METAR CYWG 150300Z 15007KT 15SM FEW081 BKN250 21/12 A2987 RMK AC1CI6 SLP119 DENSITY ALT 1700FT

METAR Oak Hammock Air Park - CAV9

Oak Hammock Air Park是,加拿大中的小机场。 该机场位于纬度50,14199和经度-97,06104。 该机场有一条跑道: 18/36. 该机场的伪ICAO代码为CAV9。 机场在Winnipeg FIR中。

该航空气象观测是针对Winnipeg / James Armstrong Richardson International Airport在2024年6月14日 22:00, 当地时间进行的。

机场观察

风向为150°,速度为7 kt。

可见度为15 mi。

有几云在8.100 ft的高度 和 碎云在25.000 ft的高度。 破损或更高的上限为25.000 ft。

温度和风寒是21 °C。 露点为12 °C,相对湿度为57%。 海平面上的气压为29,87 inHg (QNH)。

白天

今天,太阳从05:17升起,在21:40降落。 这适用于Oak Hammock Air Park,世界夏令时可能有所不同。 当地时间与世界标准时间之间的时差为-5 小时。 夏令时目前正在进行中。

公司介绍

我们没有关于这个机场的公司信息。

体会

到Vliegles.nl去找飞行课程,跳伞和其他飞行体验。 浏览页面,了解Oak Hammock Air Park附近所有可用的活动。 你也可以使用搜索功能来寻找你所在地附近的特定飞行课程、跳伞或其他飞行体验。

跑道

Id 标题 侧风 逆风 侧风 %
18/36 179°-359° 3 kt 6 kt 48 %

逆风成分最大的方向会被突出显示,并用于横风计算。 这并不一定意味着这个方向在使用。

乌云

8.100 ft FEW 几云
25.000 ft BKN 碎云

温度 & 天气

温度 21 °C
露点 12 °C
相对湿度 57%
Kp-index 1 (0-9)

评论

SLP119海平面压力为29,88 inHg (29,88 inHg)
AC1CI6 DENSITY ALT 1700FT

白天

日出
05:19 (6:10)
中午
13:29
日落
21:39

小工具

你想在你的网站上有一个关于Oak Hammock Air Park的当前航空天气(METAR)的小部件吗?

显示HTML代码
报告变更